sensor_id;sensor_type;location;lat;lon;timestamp;pressure;altitude;pressure_sealevel;temperature;humidity
20009;BME280;10165;42.662;23.260;2023-08-08T00:01:56;94029.06;;;19.92;65.49
20009;BME280;10165;42.662;23.260;2023-08-08T00:04:23;94041.44;;;19.12;64.32
20009;BME280;10165;42.662;23.260;2023-08-08T00:06:50;94039.44;;;19.64;64.93
20009;BME280;10165;42.662;23.260;2023-08-08T00:09:17;94043.06;;;19.87;63.49
20009;BME280;10165;42.662;23.260;2023-08-08T00:11:44;94044.03;;;19.67;64.02
20009;BME280;10165;42.662;23.260;2023-08-08T00:14:10;94030.06;;;19.72;63.88
20009;BME280;10165;42.662;23.260;2023-08-08T00:16:37;94046.19;;;19.82;63.89
20009;BME280;10165;42.662;23.260;2023-08-08T00:19:04;94043.19;;;19.77;64.09
20009;BME280;10165;42.662;23.260;2023-08-08T00:21:30;94044.41;;;19.69;63.25
20009;BME280;10165;42.662;23.260;2023-08-08T00:23:57;94038.44;;;19.84;63.02
20009;BME280;10165;42.662;23.260;2023-08-08T00:26:24;94046.28;;;20.09;62.32
20009;BME280;10165;42.662;23.260;2023-08-08T00:28:50;94039.28;;;19.78;62.24
20009;BME280;10165;42.662;23.260;2023-08-08T00:31:18;94050.34;;;19.56;63.01
20009;BME280;10165;42.662;23.260;2023-08-08T00:33:46;94052.38;;;19.01;64.52
20009;BME280;10165;42.662;23.260;2023-08-08T00:36:13;94057.59;;;19.22;64.26
20009;BME280;10165;42.662;23.260;2023-08-08T00:38:39;94051.28;;;19.36;63.83
20009;BME280;10165;42.662;23.260;2023-08-08T00:41:06;94049.84;;;19.69;62.60
20009;BME280;10165;42.662;23.260;2023-08-08T00:43:33;94048.47;;;19.87;60.82
20009;BME280;10165;42.662;23.260;2023-08-08T00:46:00;94064.59;;;19.64;62.29
20009;BME280;10165;42.662;23.260;2023-08-08T00:48:27;94066.47;;;19.71;61.68
20009;BME280;10165;42.662;23.260;2023-08-08T00:50:54;94064.22;;;19.66;61.62
20009;BME280;10165;42.662;23.260;2023-08-08T00:53:21;94065.06;;;19.55;62.67
20009;BME280;10165;42.662;23.260;2023-08-08T00:55:49;94067.09;;;19.85;60.65
20009;BME280;10165;42.662;23.260;2023-08-08T00:58:16;94071.00;;;19.36;62.50
20009;BME280;10165;42.662;23.260;2023-08-08T01:00:43;94063.91;;;19.56;61.74
20009;BME280;10165;42.662;23.260;2023-08-08T01:03:10;94073.53;;;19.61;61.21
20009;BME280;10165;42.662;23.260;2023-08-08T01:09:00;94071.19;;;19.63;61.25
20009;BME280;10165;42.662;23.260;2023-08-08T01:11:36;94076.00;;;18.97;63.92
20009;BME280;10165;42.662;23.260;2023-08-08T01:14:05;94078.03;;;18.75;63.29
20009;BME280;10165;42.662;23.260;2023-08-08T01:16:33;94071.72;;;18.99;64.26
20009;BME280;10165;42.662;23.260;2023-08-08T01:19:00;94077.84;;;19.07;63.50
20009;BME280;10165;42.662;23.260;2023-08-08T01:21:33;94079.31;;;19.15;63.44
20009;BME280;10165;42.662;23.260;2023-08-08T01:24:24;94076.88;;;18.76;64.44
20009;BME280;10165;42.662;23.260;2023-08-08T01:26:56;94078.47;;;19.25;62.63
20009;BME280;10165;42.662;23.260;2023-08-08T01:29:23;94086.38;;;19.53;61.59
20009;BME280;10165;42.662;23.260;2023-08-08T01:31:49;94093.78;;;19.49;61.42
20009;BME280;10165;42.662;23.260;2023-08-08T01:34:16;94089.47;;;19.04;62.59
20009;BME280;10165;42.662;23.260;2023-08-08T01:39:25;94108.75;;;18.40;63.40
20009;BME280;10165;42.662;23.260;2023-08-08T01:41:54;94114.72;;;18.87;62.78
20009;BME280;10165;42.662;23.260;2023-08-08T01:44:22;94124.56;;;18.52;63.43
20009;BME280;10165;42.662;23.260;2023-08-08T01:46:50;94121.84;;;18.45;63.33
20009;BME280;10165;42.662;23.260;2023-08-08T01:49:17;94117.13;;;18.71;63.67
20009;BME280;10165;42.662;23.260;2023-08-08T01:51:44;94122.66;;;18.39;63.41
20009;BME280;10165;42.662;23.260;2023-08-08T01:54:11;94128.81;;;18.50;63.54
20009;BME280;10165;42.662;23.260;2023-08-08T01:56:38;94130.66;;;18.67;63.00
20009;BME280;10165;42.662;23.260;2023-08-08T01:59:04;94141.91;;;18.66;63.21
20009;BME280;10165;42.662;23.260;2023-08-08T02:01:31;94142.75;;;19.14;61.91
20009;BME280;10165;42.662;23.260;2023-08-08T02:03:58;94125.25;;;19.29;61.85
20009;BME280;10165;42.662;23.260;2023-08-08T02:06:25;94131.75;;;19.42;61.00
20009;BME280;10165;42.662;23.260;2023-08-08T02:08:51;94131.75;;;19.42;60.07
20009;BME280;10165;42.662;23.260;2023-08-08T02:11:18;94131.53;;;19.19;61.77
20009;BME280;10165;42.662;23.260;2023-08-08T02:13:45;94131.00;;;19.42;61.35
20009;BME280;10165;42.662;23.260;2023-08-08T02:16:12;94134.69;;;19.62;59.98
20009;BME280;10165;42.662;23.260;2023-08-08T02:18:49;94147.72;;;19.26;60.95
20009;BME280;10165;42.662;23.260;2023-08-08T02:21:33;94153.06;;;19.33;61.52
20009;BME280;10165;42.662;23.260;2023-08-08T02:24:02;94154.94;;;19.43;60.75
20009;BME280;10165;42.662;23.260;2023-08-08T02:26:29;94159.81;;;19.11;61.89
20009;BME280;10165;42.662;23.260;2023-08-08T02:28:56;94158.19;;;19.21;60.99
20009;BME280;10165;42.662;23.260;2023-08-08T02:31:22;94164.56;;;18.93;62.20
20009;BME280;10165;42.662;23.260;2023-08-08T02:33:50;94157.97;;;17.75;65.36
20009;BME280;10165;42.662;23.260;2023-08-08T02:36:17;94145.34;;;18.70;63.20
20009;BME280;10165;42.662;23.260;2023-08-08T02:38:44;94161.00;;;19.06;61.97
20009;BME280;10165;42.662;23.260;2023-08-08T02:41:11;94170.97;;;18.37;63.77
20009;BME280;10165;42.662;23.260;2023-08-08T02:43:38;94166.97;;;18.77;62.78
20009;BME280;10165;42.662;23.260;2023-08-08T02:46:05;94174.97;;;18.94;61.57
20009;BME280;10165;42.662;23.260;2023-08-08T02:48:32;94169.31;;;19.33;61.15
20009;BME280;10165;42.662;23.260;2023-08-08T02:50:59;94175.06;;;19.49;60.24
20009;BME280;10165;42.662;23.260;2023-08-08T02:53:25;94173.16;;;19.36;60.14
20009;BME280;10165;42.662;23.260;2023-08-08T02:55:52;94189.41;;;18.74;62.16
20009;BME280;10165;42.662;23.260;2023-08-08T02:58:19;94194.69;;;18.98;62.33
20009;BME280;10165;42.662;23.260;2023-08-08T03:00:45;94192.13;;;18.74;63.02
20009;BME280;10165;42.662;23.260;2023-08-08T03:03:12;94186.28;;;18.79;63.11
20009;BME280;10165;42.662;23.260;2023-08-08T03:05:39;94184.66;;;18.95;62.32
20009;BME280;10165;42.662;23.260;2023-08-08T03:08:06;94190.44;;;18.94;61.92
20009;BME280;10165;42.662;23.260;2023-08-08T03:10:33;94184.53;;;19.13;61.36
20009;BME280;10165;42.662;23.260;2023-08-08T03:12:59;94184.81;;;18.60;62.39
20009;BME280;10165;42.662;23.260;2023-08-08T03:15:26;94188.56;;;18.84;62.13
20009;BME280;10165;42.662;23.260;2023-08-08T03:17:53;94194.03;;;18.73;62.65
20009;BME280;10165;42.662;23.260;2023-08-08T03:20:19;94200.31;;;18.52;63.43
20009;BME280;10165;42.662;23.260;2023-08-08T03:22:46;94191.41;;;18.63;63.36
20009;BME280;10165;42.662;23.260;2023-08-08T03:25:13;94198.72;;;18.66;63.48
20009;BME280;10165;42.662;23.260;2023-08-08T03:27:40;94201.06;;;18.56;62.95
20009;BME280;10165;42.662;23.260;2023-08-08T03:30:07;94202.78;;;19.02;62.06
20009;BME280;10165;42.662;23.260;2023-08-08T03:32:58;94201.75;;;18.82;62.05
20009;BME280;10165;42.662;23.260;2023-08-08T03:35:24;94196.81;;;18.63;62.21
20009;BME280;10165;42.662;23.260;2023-08-08T03:37:51;94192.53;;;18.61;63.24
20009;BME280;10165;42.662;23.260;2023-08-08T03:40:18;94192.03;;;18.88;62.76
20009;BME280;10165;42.662;23.260;2023-08-08T03:42:45;94197.41;;;18.95;62.75
20009;BME280;10165;42.662;23.260;2023-08-08T03:45:11;94198.47;;;19.15;60.66
20009;BME280;10165;42.662;23.260;2023-08-08T03:47:38;94199.13;;;18.57;62.72
20009;BME280;10165;42.662;23.260;2023-08-08T03:50:06;94191.75;;;18.65;62.17
20009;BME280;10165;42.662;23.260;2023-08-08T03:52:36;94188.25;;;18.68;62.32
20009;BME280;10165;42.662;23.260;2023-08-08T03:55:04;94191.63;;;18.96;61.92
20009;BME280;10165;42.662;23.260;2023-08-08T03:57:31;94189.88;;;18.54;62.28
20009;BME280;10165;42.662;23.260;2023-08-08T03:59:58;94193.28;;;18.73;62.13
20009;BME280;10165;42.662;23.260;2023-08-08T04:02:25;94183.38;;;19.14;61.32
20009;BME280;10165;42.662;23.260;2023-08-08T04:04:52;94208.47;;;19.25;59.81
20009;BME280;10165;42.662;23.260;2023-08-08T04:07:18;94209.97;;;19.33;59.38
20009;BME280;10165;42.662;23.260;2023-08-08T04:09:45;94218.19;;;19.19;59.93
20009;BME280;10165;42.662;23.260;2023-08-08T04:12:12;94213.38;;;18.72;61.88
20009;BME280;10165;42.662;23.260;2023-08-08T04:14:39;94214.50;;;18.81;61.34
20009;BME280;10165;42.662;23.260;2023-08-08T04:17:05;94220.25;;;18.87;61.04
20009;BME280;10165;42.662;23.260;2023-08-08T04:19:32;94227.19;;;18.95;61.46
20009;BME280;10165;42.662;23.260;2023-08-08T04:21:59;94227.09;;;19.09;61.63
20009;BME280;10165;42.662;23.260;2023-08-08T04:24:26;94230.84;;;19.33;60.70
20009;BME280;10165;42.662;23.260;2023-08-08T04:26:52;94240.63;;;19.20;60.75
20009;BME280;10165;42.662;23.260;2023-08-08T04:29:19;94236.88;;;18.92;60.90
20009;BME280;10165;42.662;23.260;2023-08-08T04:31:46;94236.50;;;18.87;61.31
20009;BME280;10165;42.662;23.260;2023-08-08T04:34:12;94235.84;;;18.58;62.09
20009;BME280;10165;42.662;23.260;2023-08-08T04:36:39;94239.31;;;18.44;62.09
20009;BME280;10165;42.662;23.260;2023-08-08T04:39:06;94238.88;;;18.71;61.50
20009;BME280;10165;42.662;23.260;2023-08-08T04:41:33;94231.38;;;19.10;61.06
20009;BME280;10165;42.662;23.260;2023-08-08T04:43:59;94218.28;;;19.64;59.35
20009;BME280;10165;42.662;23.260;2023-08-08T04:46:26;94210.78;;;19.85;57.91
20009;BME280;10165;42.662;23.260;2023-08-08T04:48:53;94211.69;;;19.68;57.63
20009;BME280;10165;42.662;23.260;2023-08-08T04:51:21;94222.19;;;19.59;57.56
20009;BME280;10165;42.662;23.260;2023-08-08T04:53:48;94235.50;;;19.32;58.54
20009;BME280;10165;42.662;23.260;2023-08-08T04:56:14;94241.25;;;19.41;59.18
20009;BME280;10165;42.662;23.260;2023-08-08T04:58:41;94250.38;;;18.99;59.16
20009;BME280;10165;42.662;23.260;2023-08-08T05:01:08;94255.03;;;18.95;59.23
20009;BME280;10165;42.662;23.260;2023-08-08T05:03:41;94269.66;;;19.12;59.23
20009;BME280;10165;42.662;23.260;2023-08-08T05:06:08;94278.97;;;19.04;59.10
20009;BME280;10165;42.662;23.260;2023-08-08T05:08:34;94279.72;;;19.12;59.07
20009;BME280;10165;42.662;23.260;2023-08-08T05:11:01;94292.28;;;18.38;61.49
20009;BME280;10165;42.662;23.260;2023-08-08T05:13:28;94293.78;;;18.68;60.64
20009;BME280;10165;42.662;23.260;2023-08-08T05:15:55;94291.91;;;18.29;61.73
20009;BME280;10165;42.662;23.260;2023-08-08T05:18:21;94306.22;;;18.12;62.10
20009;BME280;10165;42.662;23.260;2023-08-08T05:20:48;94308.88;;;18.61;59.73
20009;BME280;10165;42.662;23.260;2023-08-08T05:23:17;94310.81;;;18.26;60.76
20009;BME280;10165;42.662;23.260;2023-08-08T05:25:45;94298.47;;;18.42;60.73
20009;BME280;10165;42.662;23.260;2023-08-08T05:28:12;94291.91;;;18.29;61.41
20009;BME280;10165;42.662;23.260;2023-08-08T05:30:38;94307.75;;;18.06;61.57
20009;BME280;10165;42.662;23.260;2023-08-08T05:33:05;94316.63;;;18.31;61.61
20009;BME280;10165;42.662;23.260;2023-08-08T05:35:32;94325.50;;;18.74;61.43
20009;BME280;10165;42.662;23.260;2023-08-08T05:37:59;94343.69;;;18.28;61.67
20009;BME280;10165;42.662;23.260;2023-08-08T05:40:25;94337.47;;;18.13;62.17
20009;BME280;10165;42.662;23.260;2023-08-08T05:42:52;94325.50;;;18.74;60.60
20009;BME280;10165;42.662;23.260;2023-08-08T05:45:19;94344.34;;;19.06;60.47
20009;BME280;10165;42.662;23.260;2023-08-08T05:47:46;94357.16;;;17.96;63.05
20009;BME280;10165;42.662;23.260;2023-08-08T05:50:12;94354.47;;;17.92;62.79
20009;BME280;10165;42.662;23.260;2023-08-08T05:52:39;94341.31;;;17.84;62.70
20009;BME280;10165;42.662;23.260;2023-08-08T05:55:06;94340.53;;;17.73;62.52
20009;BME280;10165;42.662;23.260;2023-08-08T05:57:56;94350.59;;;18.32;61.85
20009;BME280;10165;42.662;23.260;2023-08-08T06:00:23;94370.28;;;17.90;62.52
20009;BME280;10165;42.662;23.260;2023-08-08T06:02:50;94374.56;;;18.12;62.16
20009;BME280;10165;42.662;23.260;2023-08-08T06:05:17;94369.53;;;18.71;60.76
20009;BME280;10165;42.662;23.260;2023-08-08T06:07:44;94368.03;;;18.52;60.71
20009;BME280;10165;42.662;23.260;2023-08-08T06:10:11;94361.00;;;18.90;60.49
20009;BME280;10165;42.662;23.260;2023-08-08T06:12:38;94376.53;;;18.61;60.62
20009;BME280;10165;42.662;23.260;2023-08-08T06:15:05;94370.72;;;18.31;61.19
20009;BME280;10165;42.662;23.260;2023-08-08T06:17:33;94365.69;;;18.01;61.18
20009;BME280;10165;42.662;23.260;2023-08-08T06:20:00;94361.06;;;18.66;59.33
20009;BME280;10165;42.662;23.260;2023-08-08T06:22:51;94349.78;;;18.92;58.70
20009;BME280;10165;42.662;23.260;2023-08-08T06:25:18;94347.69;;;19.38;58.05
20009;BME280;10165;42.662;23.260;2023-08-08T06:27:45;94346.75;;;19.77;55.30
20009;BME280;10165;42.662;23.260;2023-08-08T06:30:13;94341.31;;;20.35;53.97
20009;BME280;10165;42.662;23.260;2023-08-08T06:32:42;94348.69;;;20.38;54.26
20009;BME280;10165;42.662;23.260;2023-08-08T06:35:08;94342.03;;;20.43;53.73
20009;BME280;10165;42.662;23.260;2023-08-08T06:37:38;94347.13;;;20.37;53.63
20009;BME280;10165;42.662;23.260;2023-08-08T06:40:05;94350.41;;;20.11;53.11
20009;BME280;10165;42.662;23.260;2023-08-08T06:42:37;94349.75;;;19.96;53.39
20009;BME280;10165;42.662;23.260;2023-08-08T06:45:04;94352.34;;;19.38;53.51
20009;BME280;10165;42.662;23.260;2023-08-08T06:47:32;94352.38;;;19.31;54.93
20009;BME280;10165;42.662;23.260;2023-08-08T06:49:58;94360.22;;;18.90;54.92
20009;BME280;10165;42.662;23.260;2023-08-08T06:52:26;94367.25;;;18.70;53.98
20009;BME280;10165;42.662;23.260;2023-08-08T06:54:52;94371.50;;;18.78;53.30
20009;BME280;10165;42.662;23.260;2023-08-08T06:57:19;94380.38;;;18.39;53.71
20009;BME280;10165;42.662;23.260;2023-08-08T06:59:46;94365.28;;;18.81;53.88
20009;BME280;10165;42.662;23.260;2023-08-08T07:02:18;94359.69;;;19.37;53.51
20009;BME280;10165;42.662;23.260;2023-08-08T07:04:45;94356.72;;;19.94;52.15
20009;BME280;10165;42.662;23.260;2023-08-08T07:07:12;94361.81;;;18.34;55.34
20009;BME280;10165;42.662;23.260;2023-08-08T07:09:38;94362.19;;;18.33;55.88
20009;BME280;10165;42.662;23.260;2023-08-08T07:12:05;94352.53;;;18.63;52.75
20009;BME280;10165;42.662;23.260;2023-08-08T07:14:32;94367.25;;;18.34;53.49
20009;BME280;10165;42.662;23.260;2023-08-08T07:16:59;94366.06;;;18.71;54.11
20009;BME280;10165;42.662;23.260;2023-08-08T07:19:26;94359.03;;;19.05;52.67
20009;BME280;10165;42.662;23.260;2023-08-08T07:21:53;94358.34;;;18.44;53.31
20009;BME280;10165;42.662;23.260;2023-08-08T07:24:20;94360.28;;;18.65;53.81
20009;BME280;10165;42.662;23.260;2023-08-08T07:26:47;94351.53;;;19.51;52.39
20009;BME280;10165;42.662;23.260;2023-08-08T07:29:15;94364.13;;;18.75;52.31
20009;BME280;10165;42.662;23.260;2023-08-08T07:31:43;94353.69;;;18.77;51.59
20009;BME280;10165;42.662;23.260;2023-08-08T07:34:09;94350.78;;;19.40;51.81
20009;BME280;10165;42.662;23.260;2023-08-08T07:36:41;94377.09;;;19.50;50.76
20009;BME280;10165;42.662;23.260;2023-08-08T07:39:08;94372.66;;;18.70;52.39
20009;BME280;10165;42.662;23.260;2023-08-08T07:41:59;94373.81;;;18.61;51.26
20009;BME280;10165;42.662;23.260;2023-08-08T07:44:26;94361.75;;;18.98;51.80
20009;BME280;10165;42.662;23.260;2023-08-08T07:46:52;94370.94;;;19.29;51.19
20009;BME280;10165;42.662;23.260;2023-08-08T07:49:19;94364.53;;;18.77;51.92
20009;BME280;10165;42.662;23.260;2023-08-08T07:51:46;94368.16;;;19.57;50.78
20009;BME280;10165;42.662;23.260;2023-08-08T07:54:13;94364.78;;;19.18;51.40
20009;BME280;10165;42.662;23.260;2023-08-08T07:56:39;94352.63;;;19.65;50.22
20009;BME280;10165;42.662;23.260;2023-08-08T07:59:07;94360.06;;;19.50;50.61
20009;BME280;10165;42.662;23.260;2023-08-08T08:01:35;94361.91;;;20.29;49.48
20009;BME280;10165;42.662;23.260;2023-08-08T08:04:05;94366.75;;;19.97;48.19
20009;BME280;10165;42.662;23.260;2023-08-08T08:06:36;94359.88;;;20.40;47.68
20009;BME280;10165;42.662;23.260;2023-08-08T08:09:03;94353.00;;;19.67;48.17
20009;BME280;10165;42.662;23.260;2023-08-08T08:11:30;94356.63;;;20.08;47.79
20009;BME280;10165;42.662;23.260;2023-08-08T08:13:56;94356.28;;;19.99;48.68
20009;BME280;10165;42.662;23.260;2023-08-08T08:16:47;94360.44;;;20.18;48.66
20009;BME280;10165;42.662;23.260;2023-08-08T08:19:14;94362.69;;;20.26;49.57
20009;BME280;10165;42.662;23.260;2023-08-08T08:21:41;94368.44;;;19.80;48.82
20009;BME280;10165;42.662;23.260;2023-08-08T08:24:08;94368.66;;;19.17;50.05
20009;BME280;10165;42.662;23.260;2023-08-08T08:26:42;94358.00;;;20.34;48.45
20009;BME280;10165;42.662;23.260;2023-08-08T08:29:09;94362.69;;;20.26;47.66
20009;BME280;10165;42.662;23.260;2023-08-08T08:31:36;94359.06;;;19.92;47.20
20009;BME280;10165;42.662;23.260;2023-08-08T08:34:04;94359.19;;;20.29;47.04
20009;BME280;10165;42.662;23.260;2023-08-08T08:36:37;94364.09;;;19.90;46.93
20009;BME280;10165;42.662;23.260;2023-08-08T08:39:03;94357.00;;;20.10;45.83
20009;BME280;10165;42.662;23.260;2023-08-08T08:41:59;94366.91;;;20.79;45.56
20009;BME280;10165;42.662;23.260;2023-08-08T08:44:38;94359.44;;;20.49;45.25
20009;BME280;10165;42.662;23.260;2023-08-08T08:47:07;94353.81;;;21.11;45.37
20009;BME280;10165;42.662;23.260;2023-08-08T08:49:38;94363.06;;;20.32;45.66
20009;BME280;10165;42.662;23.260;2023-08-08T08:52:05;94366.63;;;20.18;47.13
20009;BME280;10165;42.662;23.260;2023-08-08T08:54:56;94367.50;;;20.04;47.89
20009;BME280;10165;42.662;23.260;2023-08-08T08:57:23;94370.00;;;20.36;48.64
20009;BME280;10165;42.662;23.260;2023-08-08T08:59:51;94366.22;;;20.23;48.18
20009;BME280;10165;42.662;23.260;2023-08-08T09:02:18;94364.75;;;21.04;46.64
20009;BME280;10165;42.662;23.260;2023-08-08T09:04:45;94366.75;;;20.56;45.61
20009;BME280;10165;42.662;23.260;2023-08-08T09:07:12;94366.75;;;20.93;44.86
20009;BME280;10165;42.662;23.260;2023-08-08T09:09:42;94375.69;;;20.52;46.36
20009;BME280;10165;42.662;23.260;2023-08-08T09:12:10;94367.69;;;19.73;47.72
20009;BME280;10165;42.662;23.260;2023-08-08T09:14:40;94371.28;;;19.48;47.40
20009;BME280;10165;42.662;23.260;2023-08-08T09:17:11;94366.81;;;20.48;46.24
20009;BME280;10165;42.662;23.260;2023-08-08T09:19:45;94366.28;;;20.64;44.28
20009;BME280;10165;42.662;23.260;2023-08-08T09:22:14;94352.09;;;20.46;45.84
20009;BME280;10165;42.662;23.260;2023-08-08T09:24:41;94366.19;;;20.27;46.13
20009;BME280;10165;42.662;23.260;2023-08-08T09:27:09;94364.63;;;20.29;46.91
20009;BME280;10165;42.662;23.260;2023-08-08T09:29:38;94369.13;;;19.91;47.40
20009;BME280;10165;42.662;23.260;2023-08-08T09:32:06;94364.13;;;19.83;47.67
20009;BME280;10165;42.662;23.260;2023-08-08T09:34:57;94361.81;;;20.40;48.04
20009;BME280;10165;42.662;23.260;2023-08-08T09:37:25;94366.94;;;19.69;48.00
20009;BME280;10165;42.662;23.260;2023-08-08T09:39:58;94368.53;;;20.21;46.96
20009;BME280;10165;42.662;23.260;2023-08-08T09:42:27;94366.72;;;20.08;47.74
20009;BME280;10165;42.662;23.260;2023-08-08T09:44:56;94376.25;;;20.26;46.87
20009;BME280;10165;42.662;23.260;2023-08-08T09:47:24;94371.22;;;20.28;46.88
20009;BME280;10165;42.662;23.260;2023-08-08T09:49:51;94378.91;;;20.37;46.10
20009;BME280;10165;42.662;23.260;2023-08-08T09:52:18;94387.56;;;20.18;46.19
20009;BME280;10165;42.662;23.260;2023-08-08T09:54:47;94380.91;;;20.29;45.31
20009;BME280;10165;42.662;23.260;2023-08-08T09:57:15;94381.91;;;20.49;45.40
20009;BME280;10165;42.662;23.260;2023-08-08T09:59:42;94373.56;;;20.23;45.51
20009;BME280;10165;42.662;23.260;2023-08-08T10:02:13;94364.22;;;20.34;44.63
20009;BME280;10165;42.662;23.260;2023-08-08T10:04:41;94382.84;;;20.25;43.78
20009;BME280;10165;42.662;23.260;2023-08-08T10:07:09;94371.31;;;20.11;44.48
20009;BME280;10165;42.662;23.260;2023-08-08T10:09:36;94375.81;;;21.20;44.24
20009;BME280;10165;42.662;23.260;2023-08-08T10:12:07;94361.97;;;21.45;43.55
20009;BME280;10165;42.662;23.260;2023-08-08T10:14:42;94367.00;;;22.07;42.48
20009;BME280;10165;42.662;23.260;2023-08-08T10:17:14;94378.09;;;21.25;42.51
20009;BME280;10165;42.662;23.260;2023-08-08T10:19:54;94362.38;;;21.06;43.42
20009;BME280;10165;42.662;23.260;2023-08-08T10:22:22;94372.25;;;21.61;42.74
20009;BME280;10165;42.662;23.260;2023-08-08T10:24:53;94374.75;;;21.78;41.89
20009;BME280;10165;42.662;23.260;2023-08-08T10:27:34;94372.50;;;22.04;41.75
20009;BME280;10165;42.662;23.260;2023-08-08T10:30:07;94380.03;;;21.89;41.36
20009;BME280;10165;42.662;23.260;2023-08-08T10:32:43;94369.25;;;21.18;42.81
20009;BME280;10165;42.662;23.260;2023-08-08T10:35:11;94363.63;;;21.66;42.93
20009;BME280;10165;42.662;23.260;2023-08-08T10:37:39;94367.19;;;21.93;41.79
20009;BME280;10165;42.662;23.260;2023-08-08T10:40:07;94356.06;;;22.11;41.17
20009;BME280;10165;42.662;23.260;2023-08-08T10:42:42;94358.22;;;22.46;40.75
20009;BME280;10165;42.662;23.260;2023-08-08T10:45:14;94353.66;;;22.39;40.96
20009;BME280;10165;42.662;23.260;2023-08-08T10:47:42;94347.97;;;22.07;41.92
20009;BME280;10165;42.662;23.260;2023-08-08T10:50:12;94354.09;;;21.81;41.87
20009;BME280;10165;42.662;23.260;2023-08-08T10:52:52;94348.06;;;22.23;40.78
20009;BME280;10165;42.662;23.260;2023-08-08T10:55:30;94342.56;;;22.77;40.62
20009;BME280;10165;42.662;23.260;2023-08-08T10:58:12;94342.19;;;22.02;42.40
20009;BME280;10165;42.662;23.260;2023-08-08T11:00:41;94351.38;;;21.81;41.59
20009;BME280;10165;42.662;23.260;2023-08-08T11:03:08;94344.78;;;21.52;42.87
20009;BME280;10165;42.662;23.260;2023-08-08T11:05:59;94341.31;;;21.51;42.51
20009;BME280;10165;42.662;23.260;2023-08-08T11:08:26;94347.53;;;22.09;41.97
20009;BME280;10165;42.662;23.260;2023-08-08T11:10:53;94345.31;;;22.50;40.67
20009;BME280;10165;42.662;23.260;2023-08-08T11:13:20;94337.69;;;22.42;40.43
20009;BME280;10165;42.662;23.260;2023-08-08T11:15:47;94336.88;;;22.45;40.92
20009;BME280;10165;42.662;23.260;2023-08-08T11:18:13;94338.03;;;22.67;40.00
20009;BME280;10165;42.662;23.260;2023-08-08T11:20:43;94333.63;;;22.53;39.31
20009;BME280;10165;42.662;23.260;2023-08-08T11:23:10;94347.34;;;21.96;40.49
20009;BME280;10165;42.662;23.260;2023-08-08T11:25:42;94335.78;;;22.62;40.47
20009;BME280;10165;42.662;23.260;2023-08-08T11:28:11;94335.72;;;22.69;39.30
20009;BME280;10165;42.662;23.260;2023-08-08T11:30:40;94346.66;;;23.08;39.51
20009;BME280;10165;42.662;23.260;2023-08-08T11:33:07;94342.69;;;21.93;40.66
20009;BME280;10165;42.662;23.260;2023-08-08T11:35:58;94328.81;;;22.61;40.65
20009;BME280;10165;42.662;23.260;2023-08-08T11:38:25;94335.78;;;22.62;40.43
20009;BME280;10165;42.662;23.260;2023-08-08T11:40:52;94327.31;;;23.03;41.02
20009;BME280;10165;42.662;23.260;2023-08-08T11:43:22;94335.03;;;22.61;39.44
20009;BME280;10165;42.662;23.260;2023-08-08T11:45:48;94324.31;;;22.51;40.26
20009;BME280;10165;42.662;23.260;2023-08-08T11:48:15;94320.94;;;22.90;39.49
20009;BME280;10165;42.662;23.260;2023-08-08T11:50:42;94314.88;;;23.02;40.37
20009;BME280;10165;42.662;23.260;2023-08-08T11:53:11;94307.81;;;23.63;38.60
20009;BME280;10165;42.662;23.260;2023-08-08T11:55:38;94321.06;;;23.45;38.81
20009;BME280;10165;42.662;23.260;2023-08-08T11:58:05;94320.28;;;22.59;39.64
20009;BME280;10165;42.662;23.260;2023-08-08T12:00:32;94319.97;;;23.19;39.81
20009;BME280;10165;42.662;23.260;2023-08-08T12:03:00;94311.38;;;23.01;40.20
20009;BME280;10165;42.662;23.260;2023-08-08T12:05:52;94311.34;;;22.81;39.62
20009;BME280;10165;42.662;23.260;2023-08-08T12:08:19;94309.00;;;22.37;40.20
20009;BME280;10165;42.662;23.260;2023-08-08T12:10:50;94314.13;;;22.55;39.88
20009;BME280;10165;42.662;23.260;2023-08-08T12:13:23;94311.53;;;22.48;39.62
20009;BME280;10165;42.662;23.260;2023-08-08T12:15:50;94312.72;;;22.47;39.98
20009;BME280;10165;42.662;23.260;2023-08-08T12:18:19;94306.19;;;22.17;40.65
20009;BME280;10165;42.662;23.260;2023-08-08T12:20:46;94298.94;;;22.34;40.34
20009;BME280;10165;42.662;23.260;2023-08-08T12:23:14;94294.53;;;21.90;40.62
20009;BME280;10165;42.662;23.260;2023-08-08T12:25:42;94293.59;;;22.04;41.01
20009;BME280;10165;42.662;23.260;2023-08-08T12:28:09;94282.03;;;22.66;40.42
20009;BME280;10165;42.662;23.260;2023-08-08T12:30:35;94277.78;;;22.88;39.60
20009;BME280;10165;42.662;23.260;2023-08-08T12:33:02;94286.56;;;22.53;40.29
20009;BME280;10165;42.662;23.260;2023-08-08T12:35:53;94290.59;;;22.68;39.96
20009;BME280;10165;42.662;23.260;2023-08-08T12:38:20;94279.28;;;22.89;40.13
20009;BME280;10165;42.662;23.260;2023-08-08T12:40:46;94280.13;;;23.65;39.76
20009;BME280;10165;42.662;23.260;2023-08-08T12:43:13;94272.38;;;23.24;39.33
20009;BME280;10165;42.662;23.260;2023-08-08T12:45:46;94277.06;;;23.23;39.00
20009;BME280;10165;42.662;23.260;2023-08-08T12:48:12;94272.38;;;23.44;39.47
20009;BME280;10165;42.662;23.260;2023-08-08T12:50:39;94279.00;;;23.62;38.34
20009;BME280;10165;42.662;23.260;2023-08-08T12:53:07;94276.00;;;23.57;39.07
20009;BME280;10165;42.662;23.260;2023-08-08T12:55:58;94286.69;;;22.69;39.75
20009;BME280;10165;42.662;23.260;2023-08-08T12:58:25;94270.22;;;22.76;39.22
20009;BME280;10165;42.662;23.260;2023-08-08T13:00:54;94268.06;;;23.07;39.62
20009;BME280;10165;42.662;23.260;2023-08-08T13:03:21;94268.91;;;22.84;39.58
20009;BME280;10165;42.662;23.260;2023-08-08T13:05:48;94256.31;;;22.90;39.78